EZY39PC EGPH-EGGW
Flight info
| Callsign | EZY39PC |
|---|---|
| Flight time | 0h 51m |
| Altitude | 33000 |
| Route | GOSAM P600 FENIK L612 NAVSO DCT AKOMU DCT VAMEB UL612 LISTO |
| Aircraft | A319/M-SDE3FGHIRWY/LB1 |
Departure
| Time | 2026-04-24 09:40 |
|---|---|
| Airport | Edinburgh Airport (EGPH) |
Arrival
| Time | 2026-04-24 10:31 |
|---|---|
| Airport | London Luton Airport (EGGW) |
| Time | Latitude | Longitude | Altitude | Speed | Heading |
|---|---|---|---|---|---|
| 2026-04-24 09:10 | 55.95034 | -3.36096 | 117 ft | 0 kts | 233° |
| 2026-04-24 09:33 | 55.95037 | -3.36088 | 116 ft | 4 kts | 233° |
| 2026-04-24 09:33 | 55.95053 | -3.36049 | 112 ft | 4 kts | 233° |
| 2026-04-24 09:33 | 55.95066 | -3.36019 | 115 ft | 4 kts | 234° |
| 2026-04-24 09:33 | 55.95078 | -3.35978 | 113 ft | 4 kts | 260° |
| 2026-04-24 09:34 | 55.95077 | -3.35939 | 114 ft | 1 kts | 298° |
| 2026-04-24 09:34 | 55.95076 | -3.35937 | 116 ft | 0 kts | 298° |
| 2026-04-24 09:36 | 55.95076 | -3.35938 | 116 ft | 0 kts | 298° |
| 2026-04-24 09:36 | 55.95083 | -3.35962 | 116 ft | 5 kts | 297° |
| 2026-04-24 09:36 | 55.95101 | -3.36043 | 114 ft | 9 kts | 288° |
| 2026-04-24 09:36 | 55.95132 | -3.36154 | 116 ft | 11 kts | 326° |
| 2026-04-24 09:37 | 55.95198 | -3.36091 | 114 ft | 13 kts | 56° |
| 2026-04-24 09:37 | 55.95251 | -3.35934 | 115 ft | 16 kts | 58° |
| 2026-04-24 09:37 | 55.95314 | -3.35751 | 116 ft | 19 kts | 59° |
| 2026-04-24 09:37 | 55.95365 | -3.35601 | 113 ft | 13 kts | 59° |
| 2026-04-24 09:38 | 55.95412 | -3.35462 | 114 ft | 12 kts | 60° |
| 2026-04-24 09:38 | 55.95462 | -3.35399 | 116 ft | 10 kts | 351° |
| 2026-04-24 09:38 | 55.95501 | -3.35441 | 115 ft | 0 kts | 325° |
| 2026-04-24 09:39 | 55.95503 | -3.35443 | 114 ft | 2 kts | 325° |
| 2026-04-24 09:39 | 55.95534 | -3.35478 | 113 ft | 9 kts | 328° |
| 2026-04-24 09:39 | 55.95577 | -3.35538 | 112 ft | 6 kts | 297° |
| 2026-04-24 09:39 | 55.95552 | -3.35629 | 113 ft | 14 kts | 237° |
| 2026-04-24 09:40 | 55.95376 | -3.36147 | 110 ft | 95 kts | 239° |
| 2026-04-24 09:40 | 55.94889 | -3.37577 | 171 ft | 164 kts | 238° |
| 2026-04-24 09:40 | 55.94299 | -3.39282 | 987 ft | 160 kts | 238° |
| 2026-04-24 09:40 | 55.93692 | -3.41057 | 1572 ft | 178 kts | 239° |
| 2026-04-24 09:41 | 55.93006 | -3.43077 | 2019 ft | 204 kts | 239° |
| 2026-04-24 09:41 | 55.92212 | -3.45369 | 2543 ft | 229 kts | 238° |
| 2026-04-24 09:41 | 55.91337 | -3.47891 | 3251 ft | 248 kts | 239° |
| 2026-04-24 09:41 | 55.90483 | -3.50639 | 4145 ft | 258 kts | 251° |
| 2026-04-24 09:42 | 55.90186 | -3.53821 | 5165 ft | 262 kts | 264° |
| 2026-04-24 09:42 | 55.89932 | -3.57058 | 6176 ft | 266 kts | 261° |
| 2026-04-24 09:42 | 55.89602 | -3.60326 | 7163 ft | 270 kts | 260° |
| 2026-04-24 09:42 | 55.89246 | -3.63647 | 8123 ft | 275 kts | 259° |
| 2026-04-24 09:43 | 55.88882 | -3.67014 | 9073 ft | 279 kts | 259° |
| 2026-04-24 09:43 | 55.88517 | -3.70437 | 10018 ft | 283 kts | 260° |
| 2026-04-24 09:43 | 55.88113 | -3.73921 | 10712 ft | 297 kts | 253° |
| 2026-04-24 09:43 | 55.87066 | -3.77228 | 11096 ft | 319 kts | 227° |
| 2026-04-24 09:44 | 55.85212 | -3.79444 | 11832 ft | 328 kts | 202° |
| 2026-04-24 09:44 | 55.83050 | -3.80804 | 12675 ft | 331 kts | 201° |
| 2026-04-24 09:44 | 55.80915 | -3.82412 | 13517 ft | 335 kts | 205° |
| 2026-04-24 09:44 | 55.78791 | -3.84198 | 14322 ft | 340 kts | 206° |
| 2026-04-24 09:45 | 55.76682 | -3.86026 | 15036 ft | 344 kts | 206° |
| 2026-04-24 09:45 | 55.74498 | -3.87815 | 15753 ft | 348 kts | 200° |
| 2026-04-24 09:45 | 55.72112 | -3.88577 | 16440 ft | 353 kts | 180° |
| 2026-04-24 09:45 | 55.69650 | -3.88292 | 17158 ft | 356 kts | 175° |
| 2026-04-24 09:46 | 55.67166 | -3.87924 | 17883 ft | 360 kts | 175° |
| 2026-04-24 09:46 | 55.64658 | -3.87549 | 18594 ft | 364 kts | 175° |
| 2026-04-24 09:46 | 55.62089 | -3.87172 | 19223 ft | 367 kts | 175° |
| 2026-04-24 09:46 | 55.59564 | -3.86805 | 19835 ft | 371 kts | 175° |
| 2026-04-24 09:47 | 55.56984 | -3.86423 | 20462 ft | 374 kts | 175° |
| 2026-04-24 09:47 | 55.54381 | -3.86031 | 21096 ft | 377 kts | 175° |
| 2026-04-24 09:47 | 55.51758 | -3.85635 | 21726 ft | 380 kts | 175° |
| 2026-04-24 09:47 | 55.49115 | -3.85241 | 22355 ft | 383 kts | 175° |
| 2026-04-24 09:48 | 55.46450 | -3.84849 | 22974 ft | 386 kts | 175° |
| 2026-04-24 09:48 | 55.43762 | -3.84456 | 23584 ft | 389 kts | 174° |
| 2026-04-24 09:48 | 55.41051 | -3.84060 | 24139 ft | 393 kts | 174° |
| 2026-04-24 09:48 | 55.38319 | -3.83666 | 24639 ft | 396 kts | 174° |
| 2026-04-24 09:49 | 55.35561 | -3.83266 | 25124 ft | 399 kts | 174° |
| 2026-04-24 09:49 | 55.32779 | -3.82864 | 25596 ft | 403 kts | 174° |
| 2026-04-24 09:49 | 55.29971 | -3.82458 | 26061 ft | 406 kts | 174° |
| 2026-04-24 09:49 | 55.27141 | -3.82046 | 26519 ft | 410 kts | 174° |
| 2026-04-24 09:50 | 55.24293 | -3.81572 | 26972 ft | 413 kts | 170° |
| 2026-04-24 09:50 | 55.21496 | -3.80402 | 27412 ft | 414 kts | 160° |
| 2026-04-24 09:50 | 55.18847 | -3.78404 | 27844 ft | 417 kts | 152° |
| 2026-04-24 09:50 | 55.16238 | -3.76139 | 28265 ft | 420 kts | 152° |
| 2026-04-24 09:51 | 55.13603 | -3.73867 | 28686 ft | 424 kts | 152° |
| 2026-04-24 09:51 | 55.10941 | -3.71585 | 29101 ft | 427 kts | 152° |
| 2026-04-24 09:51 | 55.08260 | -3.69295 | 29533 ft | 431 kts | 152° |
| 2026-04-24 09:51 | 55.05557 | -3.66987 | 29953 ft | 434 kts | 152° |
| 2026-04-24 09:52 | 55.02834 | -3.64659 | 30370 ft | 438 kts | 152° |
| 2026-04-24 09:52 | 55.00093 | -3.62313 | 30720 ft | 441 kts | 152° |
| 2026-04-24 09:52 | 54.97330 | -3.59948 | 31063 ft | 443 kts | 152° |
| 2026-04-24 09:52 | 54.94556 | -3.57584 | 31424 ft | 446 kts | 152° |
| 2026-04-24 09:53 | 54.91750 | -3.55204 | 31711 ft | 450 kts | 152° |
| 2026-04-24 09:53 | 54.88926 | -3.52815 | 32071 ft | 451 kts | 152° |
| 2026-04-24 09:53 | 54.86105 | -3.50434 | 32541 ft | 450 kts | 152° |
| 2026-04-24 09:53 | 54.83291 | -3.48057 | 33012 ft | 450 kts | 151° |
| 2026-04-24 09:54 | 54.80476 | -3.45680 | 33313 ft | 450 kts | 151° |
| 2026-04-24 09:54 | 54.77682 | -3.43321 | 33373 ft | 440 kts | 151° |
| 2026-04-24 09:54 | 54.74979 | -3.41049 | 33373 ft | 425 kts | 151° |
| 2026-04-24 09:54 | 54.72337 | -3.38835 | 33374 ft | 419 kts | 151° |
| 2026-04-24 09:55 | 54.67118 | -3.34454 | 33371 ft | 417 kts | 151° |
| 2026-04-24 09:55 | 54.61874 | -3.30062 | 33375 ft | 427 kts | 151° |
| 2026-04-24 09:56 | 54.59159 | -3.27792 | 33373 ft | 439 kts | 151° |
| 2026-04-24 09:56 | 54.56377 | -3.25471 | 33369 ft | 449 kts | 151° |
| 2026-04-24 09:56 | 54.50715 | -3.20760 | 33382 ft | 454 kts | 151° |
| 2026-04-24 09:57 | 54.45029 | -3.16053 | 33373 ft | 454 kts | 152° |
| 2026-04-24 09:57 | 54.39341 | -3.11368 | 33366 ft | 453 kts | 152° |
| 2026-04-24 09:58 | 54.33666 | -3.06691 | 33365 ft | 453 kts | 152° |
| 2026-04-24 09:58 | 54.27986 | -3.02024 | 33366 ft | 452 kts | 152° |
| 2026-04-24 09:59 | 54.22310 | -2.97379 | 33361 ft | 452 kts | 152° |
| 2026-04-24 09:59 | 54.16632 | -2.92756 | 33380 ft | 452 kts | 153° |
| 2026-04-24 10:00 | 54.10886 | -2.88416 | 33379 ft | 452 kts | 155° |
| 2026-04-24 10:00 | 54.05078 | -2.84307 | 33376 ft | 452 kts | 155° |
| 2026-04-24 10:01 | 53.99276 | -2.80194 | 33374 ft | 452 kts | 155° |
| 2026-04-24 10:01 | 53.93490 | -2.76018 | 33374 ft | 452 kts | 155° |
| 2026-04-24 10:02 | 53.87719 | -2.71818 | 33367 ft | 452 kts | 155° |
| 2026-04-24 10:02 | 53.81937 | -2.67638 | 33365 ft | 452 kts | 155° |
| 2026-04-24 10:03 | 53.76150 | -2.63487 | 33368 ft | 452 kts | 155° |
| 2026-04-24 10:03 | 53.70352 | -2.59345 | 33386 ft | 452 kts | 156° |
| 2026-04-24 10:04 | 53.64581 | -2.55235 | 33406 ft | 449 kts | 156° |
| 2026-04-24 10:04 | 53.58874 | -2.51181 | 33402 ft | 447 kts | 156° |
| 2026-04-24 10:05 | 53.53155 | -2.47116 | 33397 ft | 446 kts | 156° |
| 2026-04-24 10:05 | 53.47444 | -2.43080 | 33391 ft | 445 kts | 156° |
| 2026-04-24 10:06 | 53.38886 | -2.37056 | 33392 ft | 444 kts | 156° |
| 2026-04-24 10:07 | 53.33188 | -2.33051 | 33388 ft | 444 kts | 156° |
| 2026-04-24 10:07 | 53.27484 | -2.29058 | 33385 ft | 444 kts | 157° |
| 2026-04-24 10:08 | 53.21781 | -2.25085 | 33380 ft | 444 kts | 157° |
| 2026-04-24 10:08 | 53.16080 | -2.21122 | 33375 ft | 444 kts | 156° |
| 2026-04-24 10:09 | 53.10858 | -2.15674 | 33371 ft | 444 kts | 143° |
| 2026-04-24 10:09 | 53.05918 | -2.09625 | 33368 ft | 444 kts | 143° |
| 2026-04-24 10:10 | 53.00890 | -2.03522 | 33369 ft | 445 kts | 143° |
| 2026-04-24 10:10 | 52.95891 | -1.97483 | 33394 ft | 444 kts | 145° |
| 2026-04-24 10:11 | 52.90925 | -1.91488 | 32660 ft | 439 kts | 144° |
| 2026-04-24 10:11 | 52.88458 | -1.88511 | 31893 ft | 439 kts | 144° |
| 2026-04-24 10:11 | 52.85994 | -1.85543 | 31151 ft | 438 kts | 144° |
| 2026-04-24 10:11 | 52.83526 | -1.82572 | 30101 ft | 441 kts | 144° |
| 2026-04-24 10:12 | 52.81031 | -1.79574 | 28905 ft | 446 kts | 144° |
| 2026-04-24 10:12 | 52.78475 | -1.76650 | 27851 ft | 447 kts | 149° |
| 2026-04-24 10:12 | 52.75806 | -1.74102 | 27000 ft | 442 kts | 150° |
| 2026-04-24 10:12 | 52.73132 | -1.71586 | 25842 ft | 443 kts | 150° |
| 2026-04-24 10:13 | 52.70456 | -1.69064 | 24748 ft | 443 kts | 150° |
| 2026-04-24 10:13 | 52.67779 | -1.66547 | 23747 ft | 442 kts | 150° |
| 2026-04-24 10:13 | 52.65134 | -1.64065 | 22881 ft | 434 kts | 150° |
| 2026-04-24 10:13 | 52.62533 | -1.61627 | 22343 ft | 423 kts | 150° |
| 2026-04-24 10:14 | 52.60037 | -1.59288 | 22169 ft | 404 kts | 150° |
| 2026-04-24 10:14 | 52.57636 | -1.57039 | 21898 ft | 391 kts | 150° |
| 2026-04-24 10:14 | 52.56090 | -1.55591 | 21729 ft | 384 kts | 150° |
| 2026-04-24 10:14 | 52.53796 | -1.53442 | 21466 ft | 374 kts | 150° |
| 2026-04-24 10:15 | 52.51566 | -1.51354 | 21209 ft | 364 kts | 150° |
| 2026-04-24 10:15 | 52.49384 | -1.49315 | 20671 ft | 362 kts | 150° |
| 2026-04-24 10:15 | 52.47180 | -1.47245 | 20042 ft | 367 kts | 150° |
| 2026-04-24 10:15 | 52.44969 | -1.45150 | 19476 ft | 367 kts | 150° |
| 2026-04-24 10:16 | 52.42760 | -1.43056 | 18794 ft | 369 kts | 150° |
| 2026-04-24 10:16 | 52.40502 | -1.40923 | 17686 ft | 381 kts | 150° |
| 2026-04-24 10:16 | 52.38170 | -1.38739 | 16738 ft | 389 kts | 150° |
| 2026-04-24 10:16 | 52.35811 | -1.36548 | 16099 ft | 388 kts | 150° |
| 2026-04-24 10:17 | 52.33474 | -1.34393 | 15418 ft | 384 kts | 150° |
| 2026-04-24 10:17 | 52.31153 | -1.32271 | 14675 ft | 380 kts | 150° |
| 2026-04-24 10:17 | 52.28849 | -1.30194 | 13890 ft | 376 kts | 150° |
| 2026-04-24 10:17 | 52.26556 | -1.28146 | 12989 ft | 376 kts | 150° |
| 2026-04-24 10:18 | 52.24268 | -1.26139 | 12519 ft | 367 kts | 150° |
| 2026-04-24 10:18 | 52.22065 | -1.24230 | 12392 ft | 350 kts | 151° |
| 2026-04-24 10:18 | 52.19931 | -1.22388 | 11827 ft | 346 kts | 150° |
| 2026-04-24 10:18 | 52.17812 | -1.20579 | 11123 ft | 342 kts | 150° |
| 2026-04-24 10:19 | 52.15726 | -1.18812 | 10767 ft | 330 kts | 151° |
| 2026-04-24 10:19 | 52.13746 | -1.17149 | 10644 ft | 311 kts | 151° |
| 2026-04-24 10:19 | 52.11872 | -1.15588 | 10522 ft | 294 kts | 151° |
| 2026-04-24 10:19 | 52.10079 | -1.14106 | 10243 ft | 285 kts | 150° |
| 2026-04-24 10:20 | 52.08317 | -1.12661 | 9790 ft | 282 kts | 151° |
| 2026-04-24 10:20 | 52.06574 | -1.11232 | 9316 ft | 280 kts | 151° |
| 2026-04-24 10:20 | 52.04842 | -1.09809 | 8897 ft | 278 kts | 151° |
| 2026-04-24 10:20 | 52.03120 | -1.08393 | 8533 ft | 276 kts | 151° |
| 2026-04-24 10:21 | 52.01418 | -1.07001 | 8163 ft | 273 kts | 151° |
| 2026-04-24 10:21 | 51.99733 | -1.05621 | 7787 ft | 271 kts | 151° |
| 2026-04-24 10:21 | 51.98057 | -1.04250 | 7396 ft | 269 kts | 151° |
| 2026-04-24 10:21 | 51.96390 | -1.02885 | 7031 ft | 267 kts | 151° |
| 2026-04-24 10:22 | 51.94758 | -1.01546 | 6649 ft | 266 kts | 151° |
| 2026-04-24 10:22 | 51.93094 | -1.00178 | 6276 ft | 262 kts | 151° |
| 2026-04-24 10:22 | 51.91525 | -0.98887 | 6150 ft | 251 kts | 151° |
| 2026-04-24 10:22 | 51.90009 | -0.97639 | 6037 ft | 238 kts | 150° |
| 2026-04-24 10:23 | 51.88778 | -0.96025 | 5988 ft | 221 kts | 122° |
| 2026-04-24 10:23 | 51.88112 | -0.93887 | 5989 ft | 209 kts | 112° |
| 2026-04-24 10:23 | 51.87562 | -0.91719 | 6002 ft | 207 kts | 111° |
| 2026-04-24 10:23 | 51.87042 | -0.89627 | 6006 ft | 194 kts | 111° |
| 2026-04-24 10:24 | 51.86547 | -0.87628 | 6002 ft | 189 kts | 111° |
| 2026-04-24 10:24 | 51.86059 | -0.85656 | 6001 ft | 189 kts | 111° |
| 2026-04-24 10:24 | 51.85572 | -0.83685 | 6004 ft | 189 kts | 111° |
| 2026-04-24 10:24 | 51.85087 | -0.81722 | 5920 ft | 186 kts | 111° |
| 2026-04-24 10:25 | 51.84606 | -0.79770 | 5660 ft | 187 kts | 111° |
| 2026-04-24 10:25 | 51.84129 | -0.77832 | 5445 ft | 185 kts | 111° |
| 2026-04-24 10:25 | 51.83657 | -0.75902 | 5212 ft | 184 kts | 111° |
| 2026-04-24 10:25 | 51.83189 | -0.73983 | 4959 ft | 183 kts | 111° |
| 2026-04-24 10:26 | 51.82721 | -0.72064 | 4697 ft | 184 kts | 111° |
| 2026-04-24 10:26 | 51.82255 | -0.70151 | 4452 ft | 182 kts | 110° |
| 2026-04-24 10:26 | 51.82062 | -0.68176 | 4326 ft | 178 kts | 88° |
| 2026-04-24 10:26 | 51.82330 | -0.66213 | 4070 ft | 180 kts | 76° |
| 2026-04-24 10:27 | 51.82676 | -0.64269 | 3843 ft | 180 kts | 75° |
| 2026-04-24 10:27 | 51.83019 | -0.62326 | 3606 ft | 180 kts | 76° |
| 2026-04-24 10:27 | 51.83362 | -0.60377 | 3348 ft | 180 kts | 75° |
| 2026-04-24 10:27 | 51.83702 | -0.58443 | 3127 ft | 179 kts | 75° |
| 2026-04-24 10:28 | 51.84041 | -0.56505 | 2888 ft | 179 kts | 75° |
| 2026-04-24 10:28 | 51.84380 | -0.54566 | 2635 ft | 178 kts | 76° |
| 2026-04-24 10:28 | 51.84710 | -0.52684 | 2403 ft | 171 kts | 76° |
| 2026-04-24 10:28 | 51.85024 | -0.50884 | 2174 ft | 161 kts | 76° |
| 2026-04-24 10:29 | 51.85318 | -0.49200 | 1952 ft | 151 kts | 76° |
| 2026-04-24 10:29 | 51.85597 | -0.47599 | 1750 ft | 145 kts | 74° |
| 2026-04-24 10:29 | 51.85860 | -0.46085 | 1554 ft | 135 kts | 75° |
| 2026-04-24 10:29 | 51.86108 | -0.44662 | 1374 ft | 130 kts | 74° |
| 2026-04-24 10:30 | 51.86350 | -0.43274 | 1194 ft | 127 kts | 75° |
| 2026-04-24 10:30 | 51.86588 | -0.41891 | 989 ft | 128 kts | 74° |
| 2026-04-24 10:30 | 51.86827 | -0.40515 | 844 ft | 128 kts | 72° |
| 2026-04-24 10:30 | 51.87067 | -0.39132 | 668 ft | 127 kts | 74° |
| 2026-04-24 10:31 | 51.87304 | -0.37766 | 542 ft | 123 kts | 72° |
| 2026-04-24 10:31 | 51.87474 | -0.36769 | 541 ft | 55 kts | 74° |
| 2026-04-24 10:31 | 51.87566 | -0.36240 | 534 ft | 44 kts | 74° |
| 2026-04-24 10:31 | 51.87619 | -0.35944 | 523 ft | 15 kts | 68° |
| 2026-04-24 10:32 | 51.87699 | -0.35917 | 527 ft | 10 kts | 345° |
| 2026-04-24 10:32 | 51.87754 | -0.35954 | 530 ft | 7 kts | 332° |
| 2026-04-24 10:32 | 51.87785 | -0.36031 | 532 ft | 10 kts | 278° |
| 2026-04-24 10:32 | 51.87769 | -0.36167 | 532 ft | 14 kts | 254° |
| 2026-04-24 10:33 | 51.87740 | -0.36334 | 532 ft | 17 kts | 253° |
| 2026-04-24 10:33 | 51.87711 | -0.36504 | 532 ft | 12 kts | 255° |
| 2026-04-24 10:33 | 51.87693 | -0.36611 | 533 ft | 9 kts | 254° |
| 2026-04-24 10:33 | 51.87675 | -0.36712 | 533 ft | 10 kts | 253° |
| 2026-04-24 10:34 | 51.87651 | -0.36845 | 534 ft | 15 kts | 254° |
| 2026-04-24 10:34 | 51.87618 | -0.37043 | 534 ft | 20 kts | 255° |
| 2026-04-24 10:34 | 51.87583 | -0.37245 | 534 ft | 16 kts | 256° |
| 2026-04-24 10:34 | 51.87606 | -0.37420 | 536 ft | 17 kts | 312° |
| 2026-04-24 10:35 | 51.87700 | -0.37559 | 534 ft | 21 kts | 296° |
| 2026-04-24 10:35 | 51.87757 | -0.37761 | 534 ft | 14 kts | 294° |
| 2026-04-24 10:35 | 51.87801 | -0.37909 | 534 ft | 12 kts | 298° |
| 2026-04-24 10:35 | 51.87829 | -0.37948 | 534 ft | 4 kts | 13° |
| 2026-04-24 10:36 | 51.87850 | -0.37908 | 534 ft | 3 kts | 49° |
| 2026-04-24 10:36 | 51.87860 | -0.37893 | 534 ft | 1 kts | 43° |